sensor_id;sensor_type;location;lat;lon;timestamp;P1;durP1;ratioP1;P2;durP2;ratioP2
47025;SDS011;32783;51.756;-2.556;2022-10-16T00:00:52;2.40;;;0.70;;
47025;SDS011;32783;51.756;-2.556;2022-10-16T00:03:18;2.30;;;1.08;;
47025;SDS011;32783;51.756;-2.556;2022-10-16T00:05:43;2.10;;;1.10;;
47025;SDS011;32783;51.756;-2.556;2022-10-16T00:08:10;2.55;;;0.90;;
47025;SDS011;32783;51.756;-2.556;2022-10-16T00:10:36;1.63;;;0.60;;
47025;SDS011;32783;51.756;-2.556;2022-10-16T00:13:02;2.90;;;0.90;;
47025;SDS011;32783;51.756;-2.556;2022-10-16T00:15:28;2.80;;;1.02;;
47025;SDS011;32783;51.756;-2.556;2022-10-16T00:17:53;1.75;;;0.80;;
47025;SDS011;32783;51.756;-2.556;2022-10-16T00:20:19;2.40;;;0.98;;
47025;SDS011;32783;51.756;-2.556;2022-10-16T00:22:44;2.65;;;0.98;;
47025;SDS011;32783;51.756;-2.556;2022-10-16T00:25:09;2.20;;;1.05;;
47025;SDS011;32783;51.756;-2.556;2022-10-16T00:27:35;1.48;;;0.75;;
47025;SDS011;32783;51.756;-2.556;2022-10-16T00:30:00;1.73;;;0.90;;
47025;SDS011;32783;51.756;-2.556;2022-10-16T00:32:26;1.17;;;0.77;;
47025;SDS011;32783;51.756;-2.556;2022-10-16T00:34:51;1.88;;;0.90;;
47025;SDS011;32783;51.756;-2.556;2022-10-16T00:37:19;2.22;;;0.98;;
47025;SDS011;32783;51.756;-2.556;2022-10-16T00:39:45;2.08;;;0.70;;
47025;SDS011;32783;51.756;-2.556;2022-10-16T00:42:14;1.77;;;0.90;;
47025;SDS011;32783;51.756;-2.556;2022-10-16T00:44:51;2.42;;;1.20;;
47025;SDS011;32783;51.756;-2.556;2022-10-16T00:47:20;3.28;;;0.77;;
47025;SDS011;32783;51.756;-2.556;2022-10-16T00:49:53;2.13;;;0.95;;
47025;SDS011;32783;51.756;-2.556;2022-10-16T00:52:24;0.93;;;0.70;;
47025;SDS011;32783;51.756;-2.556;2022-10-16T00:54:49;1.45;;;0.55;;
47025;SDS011;32783;51.756;-2.556;2022-10-16T00:57:15;1.08;;;0.50;;
47025;SDS011;32783;51.756;-2.556;2022-10-16T00:59:41;2.17;;;0.80;;
47025;SDS011;32783;51.756;-2.556;2022-10-16T01:02:09;1.52;;;0.63;;
47025;SDS011;32783;51.756;-2.556;2022-10-16T01:04:37;2.55;;;0.85;;
47025;SDS011;32783;51.756;-2.556;2022-10-16T01:09:47;2.90;;;0.70;;
47025;SDS011;32783;51.756;-2.556;2022-10-16T01:12:36;2.13;;;0.65;;
47025;SDS011;32783;51.756;-2.556;2022-10-16T01:15:27;1.65;;;0.80;;
47025;SDS011;32783;51.756;-2.556;2022-10-16T01:18:11;0.93;;;0.60;;
47025;SDS011;32783;51.756;-2.556;2022-10-16T01:20:47;1.52;;;0.57;;
47025;SDS011;32783;51.756;-2.556;2022-10-16T01:28:34;2.10;;;0.70;;
47025;SDS011;32783;51.756;-2.556;2022-10-16T01:31:04;1.83;;;0.95;;
47025;SDS011;32783;51.756;-2.556;2022-10-16T01:33:38;1.27;;;0.60;;
47025;SDS011;32783;51.756;-2.556;2022-10-16T01:36:08;1.80;;;0.52;;
47025;SDS011;32783;51.756;-2.556;2022-10-16T01:38:38;2.33;;;0.70;;
47025;SDS011;32783;51.756;-2.556;2022-10-16T01:41:09;1.05;;;0.57;;
47025;SDS011;32783;51.756;-2.556;2022-10-16T01:43:38;2.10;;;0.63;;
47025;SDS011;32783;51.756;-2.556;2022-10-16T01:46:07;1.23;;;0.70;;
47025;SDS011;32783;51.756;-2.556;2022-10-16T01:48:33;2.33;;;0.60;;
47025;SDS011;32783;51.756;-2.556;2022-10-16T01:51:04;1.38;;;0.50;;
47025;SDS011;32783;51.756;-2.556;2022-10-16T01:53:32;1.27;;;0.90;;
47025;SDS011;32783;51.756;-2.556;2022-10-16T01:55:58;1.10;;;0.68;;
47025;SDS011;32783;51.756;-2.556;2022-10-16T01:58:24;1.70;;;0.85;;
47025;SDS011;32783;51.756;-2.556;2022-10-16T02:00:50;1.35;;;0.57;;
47025;SDS011;32783;51.756;-2.556;2022-10-16T02:03:17;1.65;;;0.70;;
47025;SDS011;32783;51.756;-2.556;2022-10-16T02:08:12;1.73;;;0.60;;
47025;SDS011;32783;51.756;-2.556;2022-10-16T02:10:38;1.70;;;0.60;;
47025;SDS011;32783;51.756;-2.556;2022-10-16T02:13:13;1.52;;;0.80;;
47025;SDS011;32783;51.756;-2.556;2022-10-16T02:15:42;1.65;;;0.65;;
47025;SDS011;32783;51.756;-2.556;2022-10-16T02:18:07;1.45;;;0.57;;
47025;SDS011;32783;51.756;-2.556;2022-10-16T02:20:37;1.88;;;0.40;;
47025;SDS011;32783;51.756;-2.556;2022-10-16T02:23:09;1.42;;;0.57;;
47025;SDS011;32783;51.756;-2.556;2022-10-16T02:25:38;1.30;;;0.52;;
47025;SDS011;32783;51.756;-2.556;2022-10-16T02:28:09;1.17;;;0.50;;
47025;SDS011;32783;51.756;-2.556;2022-10-16T02:30:51;2.53;;;0.70;;
47025;SDS011;32783;51.756;-2.556;2022-10-16T02:33:23;0.98;;;0.50;;
47025;SDS011;32783;51.756;-2.556;2022-10-16T02:35:50;1.42;;;0.52;;
47025;SDS011;32783;51.756;-2.556;2022-10-16T02:38:16;2.30;;;0.85;;
47025;SDS011;32783;51.756;-2.556;2022-10-16T02:40:43;1.63;;;0.63;;
47025;SDS011;32783;51.756;-2.556;2022-10-16T02:43:08;1.33;;;0.60;;
47025;SDS011;32783;51.756;-2.556;2022-10-16T02:45:34;1.25;;;0.75;;
47025;SDS011;32783;51.756;-2.556;2022-10-16T02:48:00;1.83;;;0.65;;
47025;SDS011;32783;51.756;-2.556;2022-10-16T02:50:25;1.25;;;0.35;;
47025;SDS011;32783;51.756;-2.556;2022-10-16T02:52:51;1.65;;;0.50;;
47025;SDS011;32783;51.756;-2.556;2022-10-16T02:55:16;1.02;;;0.40;;
47025;SDS011;32783;51.756;-2.556;2022-10-16T02:57:42;2.33;;;0.80;;
47025;SDS011;32783;51.756;-2.556;2022-10-16T03:00:08;1.58;;;0.47;;
47025;SDS011;32783;51.756;-2.556;2022-10-16T03:02:35;1.98;;;0.60;;
47025;SDS011;32783;51.756;-2.556;2022-10-16T03:05:00;2.70;;;0.75;;
47025;SDS011;32783;51.756;-2.556;2022-10-16T03:07:26;1.10;;;0.50;;
47025;SDS011;32783;51.756;-2.556;2022-10-16T03:09:51;0.90;;;0.50;;
47025;SDS011;32783;51.756;-2.556;2022-10-16T03:12:17;0.93;;;0.45;;
47025;SDS011;32783;51.756;-2.556;2022-10-16T03:14:42;0.93;;;0.35;;
47025;SDS011;32783;51.756;-2.556;2022-10-16T03:17:08;0.85;;;0.50;;
47025;SDS011;32783;51.756;-2.556;2022-10-16T03:19:33;1.27;;;0.50;;
47025;SDS011;32783;51.756;-2.556;2022-10-16T03:21:59;1.00;;;0.60;;
47025;SDS011;32783;51.756;-2.556;2022-10-16T03:24:25;0.88;;;0.40;;
47025;SDS011;32783;51.756;-2.556;2022-10-16T03:26:50;1.90;;;0.90;;
47025;SDS011;32783;51.756;-2.556;2022-10-16T03:29:15;1.58;;;0.52;;
47025;SDS011;32783;51.756;-2.556;2022-10-16T03:31:41;0.57;;;0.35;;
47025;SDS011;32783;51.756;-2.556;2022-10-16T03:34:06;2.30;;;0.52;;
47025;SDS011;32783;51.756;-2.556;2022-10-16T03:36:32;1.58;;;0.63;;
47025;SDS011;32783;51.756;-2.556;2022-10-16T03:38:57;1.20;;;0.80;;
47025;SDS011;32783;51.756;-2.556;2022-10-16T03:41:22;1.45;;;0.77;;
47025;SDS011;32783;51.756;-2.556;2022-10-16T03:43:48;2.05;;;0.82;;
47025;SDS011;32783;51.756;-2.556;2022-10-16T03:46:13;1.00;;;0.50;;
47025;SDS011;32783;51.756;-2.556;2022-10-16T03:48:39;1.02;;;0.75;;
47025;SDS011;32783;51.756;-2.556;2022-10-16T03:51:05;1.23;;;0.40;;
47025;SDS011;32783;51.756;-2.556;2022-10-16T03:53:30;1.55;;;0.70;;
47025;SDS011;32783;51.756;-2.556;2022-10-16T03:55:56;1.13;;;0.40;;
47025;SDS011;32783;51.756;-2.556;2022-10-16T03:58:21;1.80;;;0.50;;
47025;SDS011;32783;51.756;-2.556;2022-10-16T04:00:47;1.35;;;0.60;;
47025;SDS011;32783;51.756;-2.556;2022-10-16T04:03:13;1.33;;;0.60;;
47025;SDS011;32783;51.756;-2.556;2022-10-16T04:05:38;2.05;;;0.98;;
47025;SDS011;32783;51.756;-2.556;2022-10-16T04:08:04;1.23;;;0.63;;
47025;SDS011;32783;51.756;-2.556;2022-10-16T04:10:30;1.20;;;0.57;;
47025;SDS011;32783;51.756;-2.556;2022-10-16T04:12:55;1.65;;;0.40;;
47025;SDS011;32783;51.756;-2.556;2022-10-16T04:15:21;1.23;;;0.55;;
47025;SDS011;32783;51.756;-2.556;2022-10-16T04:17:47;1.65;;;0.68;;
47025;SDS011;32783;51.756;-2.556;2022-10-16T04:20:12;1.00;;;0.60;;
47025;SDS011;32783;51.756;-2.556;2022-10-16T04:22:38;0.75;;;0.38;;
47025;SDS011;32783;51.756;-2.556;2022-10-16T04:25:04;1.15;;;0.38;;
47025;SDS011;32783;51.756;-2.556;2022-10-16T04:27:29;1.75;;;0.65;;
47025;SDS011;32783;51.756;-2.556;2022-10-16T04:29:56;0.90;;;0.50;;
47025;SDS011;32783;51.756;-2.556;2022-10-16T04:32:22;1.30;;;0.68;;
47025;SDS011;32783;51.756;-2.556;2022-10-16T04:34:48;1.85;;;0.47;;
47025;SDS011;32783;51.756;-2.556;2022-10-16T04:37:13;1.13;;;0.50;;
47025;SDS011;32783;51.756;-2.556;2022-10-16T04:39:38;0.88;;;0.40;;
47025;SDS011;32783;51.756;-2.556;2022-10-16T04:42:04;1.95;;;0.47;;
47025;SDS011;32783;51.756;-2.556;2022-10-16T04:44:29;1.13;;;0.63;;
47025;SDS011;32783;51.756;-2.556;2022-10-16T04:46:55;1.38;;;0.57;;
47025;SDS011;32783;51.756;-2.556;2022-10-16T04:49:20;1.23;;;0.60;;
47025;SDS011;32783;51.756;-2.556;2022-10-16T04:51:45;0.75;;;0.50;;
47025;SDS011;32783;51.756;-2.556;2022-10-16T04:54:11;0.93;;;0.32;;
47025;SDS011;32783;51.756;-2.556;2022-10-16T04:56:36;0.60;;;0.30;;
47025;SDS011;32783;51.756;-2.556;2022-10-16T04:59:08;0.90;;;0.35;;
47025;SDS011;32783;51.756;-2.556;2022-10-16T05:01:34;1.10;;;0.30;;
47025;SDS011;32783;51.756;-2.556;2022-10-16T05:03:59;1.27;;;0.63;;
47025;SDS011;32783;51.756;-2.556;2022-10-16T05:06:25;1.95;;;0.50;;
47025;SDS011;32783;51.756;-2.556;2022-10-16T05:08:50;1.20;;;0.50;;
47025;SDS011;32783;51.756;-2.556;2022-10-16T05:11:16;0.70;;;0.35;;
47025;SDS011;32783;51.756;-2.556;2022-10-16T05:13:41;1.20;;;0.43;;
47025;SDS011;32783;51.756;-2.556;2022-10-16T05:16:06;1.08;;;0.43;;
47025;SDS011;32783;51.756;-2.556;2022-10-16T05:18:32;0.77;;;0.28;;
47025;SDS011;32783;51.756;-2.556;2022-10-16T05:20:57;0.80;;;0.52;;
47025;SDS011;32783;51.756;-2.556;2022-10-16T05:23:23;1.08;;;0.40;;
47025;SDS011;32783;51.756;-2.556;2022-10-16T05:25:52;1.73;;;0.55;;
47025;SDS011;32783;51.756;-2.556;2022-10-16T05:28:23;1.58;;;0.60;;
47025;SDS011;32783;51.756;-2.556;2022-10-16T05:30:49;1.35;;;0.60;;
47025;SDS011;32783;51.756;-2.556;2022-10-16T05:33:15;1.20;;;0.50;;
47025;SDS011;32783;51.756;-2.556;2022-10-16T05:35:40;0.65;;;0.30;;
47025;SDS011;32783;51.756;-2.556;2022-10-16T05:38:06;0.93;;;0.52;;
47025;SDS011;32783;51.756;-2.556;2022-10-16T05:40:31;0.65;;;0.52;;
47025;SDS011;32783;51.756;-2.556;2022-10-16T05:42:57;0.82;;;0.30;;
47025;SDS011;32783;51.756;-2.556;2022-10-16T05:45:22;0.90;;;0.38;;
47025;SDS011;32783;51.756;-2.556;2022-10-16T05:47:47;1.23;;;0.50;;
47025;SDS011;32783;51.756;-2.556;2022-10-16T05:50:13;0.63;;;0.40;;
47025;SDS011;32783;51.756;-2.556;2022-10-16T05:52:38;1.00;;;0.40;;
47025;SDS011;32783;51.756;-2.556;2022-10-16T05:55:04;0.77;;;0.40;;
47025;SDS011;32783;51.756;-2.556;2022-10-16T05:57:29;1.17;;;0.60;;
47025;SDS011;32783;51.756;-2.556;2022-10-16T05:59:55;0.60;;;0.30;;
47025;SDS011;32783;51.756;-2.556;2022-10-16T06:02:20;0.95;;;0.43;;
47025;SDS011;32783;51.756;-2.556;2022-10-16T06:04:46;0.65;;;0.30;;
47025;SDS011;32783;51.756;-2.556;2022-10-16T06:07:11;1.63;;;0.75;;
47025;SDS011;32783;51.756;-2.556;2022-10-16T06:09:37;0.30;;;0.20;;
47025;SDS011;32783;51.756;-2.556;2022-10-16T06:12:02;0.75;;;0.30;;
47025;SDS011;32783;51.756;-2.556;2022-10-16T06:14:28;1.13;;;0.40;;
47025;SDS011;32783;51.756;-2.556;2022-10-16T06:16:53;0.80;;;0.30;;
47025;SDS011;32783;51.756;-2.556;2022-10-16T06:19:18;0.52;;;0.30;;
47025;SDS011;32783;51.756;-2.556;2022-10-16T06:21:44;0.50;;;0.35;;
47025;SDS011;32783;51.756;-2.556;2022-10-16T06:24:10;0.45;;;0.40;;
47025;SDS011;32783;51.756;-2.556;2022-10-16T06:26:35;0.70;;;0.30;;
47025;SDS011;32783;51.756;-2.556;2022-10-16T06:29:01;1.00;;;0.30;;
47025;SDS011;32783;51.756;-2.556;2022-10-16T06:31:27;1.08;;;0.40;;
47025;SDS011;32783;51.756;-2.556;2022-10-16T06:36:21;0.68;;;0.43;;
47025;SDS011;32783;51.756;-2.556;2022-10-16T06:38:46;0.30;;;0.20;;
47025;SDS011;32783;51.756;-2.556;2022-10-16T06:41:13;0.60;;;0.30;;
47025;SDS011;32783;51.756;-2.556;2022-10-16T06:43:40;0.90;;;0.40;;
47025;SDS011;32783;51.756;-2.556;2022-10-16T06:46:06;0.57;;;0.25;;
47025;SDS011;32783;51.756;-2.556;2022-10-16T06:48:33;1.20;;;0.50;;
47025;SDS011;32783;51.756;-2.556;2022-10-16T06:50:59;1.17;;;0.47;;
47025;SDS011;32783;51.756;-2.556;2022-10-16T06:55:54;1.10;;;0.70;;
47025;SDS011;32783;51.756;-2.556;2022-10-16T06:58:20;0.55;;;0.38;;
47025;SDS011;32783;51.756;-2.556;2022-10-16T07:00:46;1.55;;;0.80;;
47025;SDS011;32783;51.756;-2.556;2022-10-16T07:03:11;1.73;;;0.88;;
47025;SDS011;32783;51.756;-2.556;2022-10-16T07:05:41;0.80;;;0.50;;
47025;SDS011;32783;51.756;-2.556;2022-10-16T07:08:07;1.45;;;0.90;;
47025;SDS011;32783;51.756;-2.556;2022-10-16T07:10:33;1.08;;;0.60;;
47025;SDS011;32783;51.756;-2.556;2022-10-16T07:12:59;1.25;;;0.60;;
47025;SDS011;32783;51.756;-2.556;2022-10-16T07:15:24;1.33;;;0.65;;
47025;SDS011;32783;51.756;-2.556;2022-10-16T07:17:50;0.63;;;0.50;;
47025;SDS011;32783;51.756;-2.556;2022-10-16T07:20:16;2.08;;;0.68;;
47025;SDS011;32783;51.756;-2.556;2022-10-16T07:22:41;1.60;;;0.60;;
47025;SDS011;32783;51.756;-2.556;2022-10-16T07:25:07;0.80;;;0.60;;
47025;SDS011;32783;51.756;-2.556;2022-10-16T07:27:33;1.50;;;0.70;;
47025;SDS011;32783;51.756;-2.556;2022-10-16T07:29:59;1.02;;;0.70;;
47025;SDS011;32783;51.756;-2.556;2022-10-16T07:32:24;0.90;;;0.50;;
47025;SDS011;32783;51.756;-2.556;2022-10-16T07:34:50;1.67;;;0.60;;
47025;SDS011;32783;51.756;-2.556;2022-10-16T07:37:16;1.20;;;0.77;;
47025;SDS011;32783;51.756;-2.556;2022-10-16T07:39:42;3.40;;;0.70;;
47025;SDS011;32783;51.756;-2.556;2022-10-16T07:42:07;9.18;;;0.93;;
47025;SDS011;32783;51.756;-2.556;2022-10-16T07:44:33;3.25;;;0.68;;
47025;SDS011;32783;51.756;-2.556;2022-10-16T07:46:58;0.88;;;0.45;;
47025;SDS011;32783;51.756;-2.556;2022-10-16T07:49:24;1.17;;;0.50;;
47025;SDS011;32783;51.756;-2.556;2022-10-16T07:51:49;5.85;;;0.77;;
47025;SDS011;32783;51.756;-2.556;2022-10-16T07:54:15;1.98;;;0.70;;
47025;SDS011;32783;51.756;-2.556;2022-10-16T07:56:40;2.97;;;1.13;;
47025;SDS011;32783;51.756;-2.556;2022-10-16T07:59:05;10.85;;;1.25;;
47025;SDS011;32783;51.756;-2.556;2022-10-16T08:01:31;3.70;;;0.65;;
47025;SDS011;32783;51.756;-2.556;2022-10-16T08:03:56;6.07;;;0.52;;
47025;SDS011;32783;51.756;-2.556;2022-10-16T08:06:22;2.58;;;0.55;;
47025;SDS011;32783;51.756;-2.556;2022-10-16T08:08:48;2.97;;;0.55;;
47025;SDS011;32783;51.756;-2.556;2022-10-16T08:11:13;3.80;;;0.40;;
47025;SDS011;32783;51.756;-2.556;2022-10-16T08:13:40;1.70;;;0.55;;
47025;SDS011;32783;51.756;-2.556;2022-10-16T08:16:06;0.95;;;0.45;;
47025;SDS011;32783;51.756;-2.556;2022-10-16T08:18:33;2.58;;;0.88;;
47025;SDS011;32783;51.756;-2.556;2022-10-16T08:21:00;2.03;;;0.80;;
47025;SDS011;32783;51.756;-2.556;2022-10-16T08:23:27;2.22;;;0.65;;
47025;SDS011;32783;51.756;-2.556;2022-10-16T08:25:53;1.77;;;1.05;;
47025;SDS011;32783;51.756;-2.556;2022-10-16T08:28:19;0.82;;;0.55;;
47025;SDS011;32783;51.756;-2.556;2022-10-16T08:30:45;3.40;;;1.20;;
47025;SDS011;32783;51.756;-2.556;2022-10-16T08:33:11;0.85;;;0.50;;
47025;SDS011;32783;51.756;-2.556;2022-10-16T08:35:36;1.05;;;0.88;;
47025;SDS011;32783;51.756;-2.556;2022-10-16T08:38:05;1.45;;;0.50;;
47025;SDS011;32783;51.756;-2.556;2022-10-16T08:40:31;1.25;;;1.10;;
47025;SDS011;32783;51.756;-2.556;2022-10-16T08:45:34;1.75;;;0.90;;
47025;SDS011;32783;51.756;-2.556;2022-10-16T08:51:06;2.03;;;0.55;;
47025;SDS011;32783;51.756;-2.556;2022-10-16T08:53:37;2.85;;;0.70;;
47025;SDS011;32783;51.756;-2.556;2022-10-16T08:56:08;1.67;;;0.70;;
47025;SDS011;32783;51.756;-2.556;2022-10-16T08:58:33;2.72;;;0.70;;
47025;SDS011;32783;51.756;-2.556;2022-10-16T09:01:00;4.57;;;0.98;;
47025;SDS011;32783;51.756;-2.556;2022-10-16T09:06:29;1.75;;;1.00;;
47025;SDS011;32783;51.756;-2.556;2022-10-16T09:14:18;2.17;;;0.73;;
47025;SDS011;32783;51.756;-2.556;2022-10-16T09:17:03;3.20;;;0.70;;
47025;SDS011;32783;51.756;-2.556;2022-10-16T09:19:38;4.68;;;0.80;;
47025;SDS011;32783;51.756;-2.556;2022-10-16T09:22:12;6.78;;;1.00;;
47025;SDS011;32783;51.756;-2.556;2022-10-16T09:24:40;4.38;;;1.05;;
47025;SDS011;32783;51.756;-2.556;2022-10-16T09:27:08;3.00;;;0.90;;
47025;SDS011;32783;51.756;-2.556;2022-10-16T09:29:35;4.88;;;1.10;;
47025;SDS011;32783;51.756;-2.556;2022-10-16T09:32:07;5.22;;;1.23;;
47025;SDS011;32783;51.756;-2.556;2022-10-16T09:34:36;2.65;;;1.10;;
47025;SDS011;32783;51.756;-2.556;2022-10-16T09:37:09;3.22;;;1.15;;
47025;SDS011;32783;51.756;-2.556;2022-10-16T09:39:45;5.38;;;1.02;;
47025;SDS011;32783;51.756;-2.556;2022-10-16T09:45:20;3.38;;;0.88;;
47025;SDS011;32783;51.756;-2.556;2022-10-16T09:47:46;2.65;;;0.90;;
47025;SDS011;32783;51.756;-2.556;2022-10-16T09:50:22;2.75;;;0.98;;
47025;SDS011;32783;51.756;-2.556;2022-10-16T09:52:50;3.90;;;1.00;;
47025;SDS011;32783;51.756;-2.556;2022-10-16T09:55:16;9.32;;;1.52;;
47025;SDS011;32783;51.756;-2.556;2022-10-16T09:57:49;4.43;;;0.90;;
47025;SDS011;32783;51.756;-2.556;2022-10-16T10:00:18;4.30;;;0.98;;
47025;SDS011;32783;51.756;-2.556;2022-10-16T10:02:44;2.13;;;0.80;;
47025;SDS011;32783;51.756;-2.556;2022-10-16T10:05:26;1.35;;;0.80;;
47025;SDS011;32783;51.756;-2.556;2022-10-16T10:07:57;2.22;;;1.15;;
47025;SDS011;32783;51.756;-2.556;2022-10-16T10:10:28;2.55;;;0.70;;
47025;SDS011;32783;51.756;-2.556;2022-10-16T10:12:54;5.07;;;1.20;;
47025;SDS011;32783;51.756;-2.556;2022-10-16T10:15:20;2.42;;;1.17;;
47025;SDS011;32783;51.756;-2.556;2022-10-16T10:17:56;1.58;;;1.00;;
47025;SDS011;32783;51.756;-2.556;2022-10-16T10:20:29;2.72;;;0.85;;
47025;SDS011;32783;51.756;-2.556;2022-10-16T10:22:57;6.00;;;1.48;;
47025;SDS011;32783;51.756;-2.556;2022-10-16T10:25:42;3.35;;;0.98;;
47025;SDS011;32783;51.756;-2.556;2022-10-16T10:31:19;2.58;;;0.60;;
47025;SDS011;32783;51.756;-2.556;2022-10-16T10:36:43;1.58;;;0.60;;
47025;SDS011;32783;51.756;-2.556;2022-10-16T10:39:58;1.60;;;0.82;;
47025;SDS011;32783;51.756;-2.556;2022-10-16T10:50:37;2.13;;;0.65;;
47025;SDS011;32783;51.756;-2.556;2022-10-16T10:53:15;3.08;;;1.15;;
47025;SDS011;32783;51.756;-2.556;2022-10-16T11:05:53;2.00;;;0.80;;
47025;SDS011;32783;51.756;-2.556;2022-10-16T11:11:13;2.15;;;1.15;;
47025;SDS011;32783;51.756;-2.556;2022-10-16T11:19:35;2.28;;;0.75;;
47025;SDS011;32783;51.756;-2.556;2022-10-16T11:24:59;3.53;;;1.00;;
47025;SDS011;32783;51.756;-2.556;2022-10-16T11:27:36;2.38;;;0.77;;
47025;SDS011;32783;51.756;-2.556;2022-10-16T11:30:04;1.30;;;0.80;;
47025;SDS011;32783;51.756;-2.556;2022-10-16T11:32:35;3.25;;;1.02;;
47025;SDS011;32783;51.756;-2.556;2022-10-16T11:38:40;1.88;;;0.70;;
47025;SDS011;32783;51.756;-2.556;2022-10-16T11:41:29;1.98;;;0.65;;
47025;SDS011;32783;51.756;-2.556;2022-10-16T11:49:43;1.55;;;0.65;;
47025;SDS011;32783;51.756;-2.556;2022-10-16T11:57:27;1.95;;;0.73;;
47025;SDS011;32783;51.756;-2.556;2022-10-16T12:09:00;1.23;;;0.60;;
47025;SDS011;32783;51.756;-2.556;2022-10-16T12:13:51;2.22;;;0.70;;
47025;SDS011;32783;51.756;-2.556;2022-10-16T12:18:43;1.25;;;0.45;;
47025;SDS011;32783;51.756;-2.556;2022-10-16T12:21:10;1.58;;;0.65;;
47025;SDS011;32783;51.756;-2.556;2022-10-16T12:23:45;1.10;;;0.52;;
47025;SDS011;32783;51.756;-2.556;2022-10-16T12:26:13;1.33;;;0.70;;
47025;SDS011;32783;51.756;-2.556;2022-10-16T12:28:38;2.15;;;0.60;;
47025;SDS011;32783;51.756;-2.556;2022-10-16T12:31:06;3.35;;;0.80;;
47025;SDS011;32783;51.756;-2.556;2022-10-16T12:33:34;2.35;;;0.80;;
47025;SDS011;32783;51.756;-2.556;2022-10-16T12:36:06;1.03;;;0.57;;
47025;SDS011;32783;51.756;-2.556;2022-10-16T12:38:51;1.52;;;0.80;;
47025;SDS011;32783;51.756;-2.556;2022-10-16T12:41:30;1.85;;;0.77;;
47025;SDS011;32783;51.756;-2.556;2022-10-16T12:43:57;2.33;;;0.88;;
47025;SDS011;32783;51.756;-2.556;2022-10-16T12:49:04;1.20;;;0.70;;
47025;SDS011;32783;51.756;-2.556;2022-10-16T13:07:31;3.10;;;1.10;;
47025;SDS011;32783;51.756;-2.556;2022-10-16T13:10:05;2.33;;;0.70;;
47025;SDS011;32783;51.756;-2.556;2022-10-16T13:12:55;2.33;;;0.60;;
47025;SDS011;32783;51.756;-2.556;2022-10-16T13:18:24;4.03;;;0.93;;
47025;SDS011;32783;51.756;-2.556;2022-10-16T13:28:41;2.00;;;0.82;;
47025;SDS011;32783;51.756;-2.556;2022-10-16T13:31:13;4.88;;;1.00;;
47025;SDS011;32783;51.756;-2.556;2022-10-16T13:33:43;2.72;;;1.10;;
47025;SDS011;32783;51.756;-2.556;2022-10-16T13:36:20;4.18;;;1.00;;
47025;SDS011;32783;51.756;-2.556;2022-10-16T13:38:45;2.38;;;1.38;;
47025;SDS011;32783;51.756;-2.556;2022-10-16T13:41:15;4.25;;;1.45;;
47025;SDS011;32783;51.756;-2.556;2022-10-16T13:43:43;3.22;;;0.82;;
47025;SDS011;32783;51.756;-2.556;2022-10-16T13:46:17;3.97;;;0.80;;
47025;SDS011;32783;51.756;-2.556;2022-10-16T13:48:44;3.50;;;1.30;;
47025;SDS011;32783;51.756;-2.556;2022-10-16T13:51:20;2.42;;;0.77;;
47025;SDS011;32783;51.756;-2.556;2022-10-16T13:53:46;2.50;;;1.23;;
47025;SDS011;32783;51.756;-2.556;2022-10-16T13:56:12;3.08;;;1.20;;
47025;SDS011;32783;51.756;-2.556;2022-10-16T13:58:42;2.40;;;1.05;;
47025;SDS011;32783;51.756;-2.556;2022-10-16T14:01:18;2.33;;;0.90;;
47025;SDS011;32783;51.756;-2.556;2022-10-16T14:03:45;3.90;;;0.93;;
47025;SDS011;32783;51.756;-2.556;2022-10-16T14:06:15;4.75;;;1.42;;
47025;SDS011;32783;51.756;-2.556;2022-10-16T14:08:43;9.70;;;4.07;;
47025;SDS011;32783;51.756;-2.556;2022-10-16T14:11:10;8.40;;;4.57;;
47025;SDS011;32783;51.756;-2.556;2022-10-16T14:13:43;6.88;;;3.65;;
47025;SDS011;32783;51.756;-2.556;2022-10-16T14:16:10;5.13;;;2.50;;
47025;SDS011;32783;51.756;-2.556;2022-10-16T14:18:37;5.03;;;1.88;;
47025;SDS011;32783;51.756;-2.556;2022-10-16T14:21:07;6.32;;;2.17;;
47025;SDS011;32783;51.756;-2.556;2022-10-16T14:23:40;4.10;;;1.75;;
47025;SDS011;32783;51.756;-2.556;2022-10-16T14:26:11;5.85;;;1.98;;
47025;SDS011;32783;51.756;-2.556;2022-10-16T14:28:41;8.13;;;1.48;;
47025;SDS011;32783;51.756;-2.556;2022-10-16T14:33:56;8.60;;;1.95;;
47025;SDS011;32783;51.756;-2.556;2022-10-16T14:36:22;3.35;;;1.45;;
47025;SDS011;32783;51.756;-2.556;2022-10-16T14:38:49;6.65;;;1.85;;
47025;SDS011;32783;51.756;-2.556;2022-10-16T14:41:23;7.68;;;1.73;;
47025;SDS011;32783;51.756;-2.556;2022-10-16T14:43:50;7.15;;;1.90;;
47025;SDS011;32783;51.756;-2.556;2022-10-16T14:46:22;5.87;;;1.87;;
47025;SDS011;32783;51.756;-2.556;2022-10-16T14:48:59;4.68;;;1.73;;
47025;SDS011;32783;51.756;-2.556;2022-10-16T14:51:30;4.40;;;1.90;;
47025;SDS011;32783;51.756;-2.556;2022-10-16T14:53:55;2.97;;;1.80;;
47025;SDS011;32783;51.756;-2.556;2022-10-16T14:56:22;3.45;;;1.33;;
47025;SDS011;32783;51.756;-2.556;2022-10-16T14:58:51;6.15;;;1.92;;
47025;SDS011;32783;51.756;-2.556;2022-10-16T15:01:17;5.38;;;1.48;;
47025;SDS011;32783;51.756;-2.556;2022-10-16T15:03:43;4.70;;;1.65;;
47025;SDS011;32783;51.756;-2.556;2022-10-16T15:06:12;4.22;;;1.40;;
47025;SDS011;32783;51.756;-2.556;2022-10-16T15:08:38;5.45;;;1.60;;
47025;SDS011;32783;51.756;-2.556;2022-10-16T15:11:04;6.25;;;2.00;;
47025;SDS011;32783;51.756;-2.556;2022-10-16T15:13:30;5.65;;;1.58;;
47025;SDS011;32783;51.756;-2.556;2022-10-16T15:15:56;4.30;;;1.33;;
47025;SDS011;32783;51.756;-2.556;2022-10-16T15:18:21;4.40;;;2.00;;
47025;SDS011;32783;51.756;-2.556;2022-10-16T15:20:48;6.55;;;1.90;;
47025;SDS011;32783;51.756;-2.556;2022-10-16T15:23:15;4.45;;;1.60;;
47025;SDS011;32783;51.756;-2.556;2022-10-16T15:25:46;2.58;;;1.67;;
47025;SDS011;32783;51.756;-2.556;2022-10-16T15:28:13;3.30;;;1.50;;
47025;SDS011;32783;51.756;-2.556;2022-10-16T15:30:40;4.15;;;1.70;;
47025;SDS011;32783;51.756;-2.556;2022-10-16T15:33:09;2.55;;;1.27;;
47025;SDS011;32783;51.756;-2.556;2022-10-16T15:35:37;5.18;;;1.88;;
47025;SDS011;32783;51.756;-2.556;2022-10-16T15:38:02;6.75;;;1.60;;
47025;SDS011;32783;51.756;-2.556;2022-10-16T15:40:28;11.23;;;2.28;;
47025;SDS011;32783;51.756;-2.556;2022-10-16T15:42:53;3.67;;;1.45;;
47025;SDS011;32783;51.756;-2.556;2022-10-16T15:45:19;3.58;;;1.60;;
47025;SDS011;32783;51.756;-2.556;2022-10-16T15:47:45;3.47;;;1.52;;
47025;SDS011;32783;51.756;-2.556;2022-10-16T15:50:11;6.10;;;1.20;;
47025;SDS011;32783;51.756;-2.556;2022-10-16T15:52:37;9.05;;;2.00;;
47025;SDS011;32783;51.756;-2.556;2022-10-16T15:55:05;4.43;;;1.50;;
47025;SDS011;32783;51.756;-2.556;2022-10-16T15:57:31;4.75;;;1.63;;
47025;SDS011;32783;51.756;-2.556;2022-10-16T15:59:57;3.45;;;1.17;;
47025;SDS011;32783;51.756;-2.556;2022-10-16T16:02:22;4.72;;;1.25;;
47025;SDS011;32783;51.756;-2.556;2022-10-16T16:04:47;3.58;;;1.13;;
47025;SDS011;32783;51.756;-2.556;2022-10-16T16:07:13;3.85;;;1.63;;
47025;SDS011;32783;51.756;-2.556;2022-10-16T16:09:38;8.45;;;2.30;;
47025;SDS011;32783;51.756;-2.556;2022-10-16T16:12:04;5.55;;;1.40;;
47025;SDS011;32783;51.756;-2.556;2022-10-16T16:14:29;7.68;;;2.08;;
47025;SDS011;32783;51.756;-2.556;2022-10-16T16:16:55;7.35;;;1.20;;
47025;SDS011;32783;51.756;-2.556;2022-10-16T16:19:21;8.25;;;1.52;;
47025;SDS011;32783;51.756;-2.556;2022-10-16T16:21:49;4.68;;;1.50;;
47025;SDS011;32783;51.756;-2.556;2022-10-16T16:24:15;3.55;;;1.27;;
47025;SDS011;32783;51.756;-2.556;2022-10-16T16:26:41;8.48;;;2.08;;
47025;SDS011;32783;51.756;-2.556;2022-10-16T16:29:11;5.75;;;1.08;;
47025;SDS011;32783;51.756;-2.556;2022-10-16T16:31:38;2.63;;;1.10;;
47025;SDS011;32783;51.756;-2.556;2022-10-16T16:34:04;3.55;;;1.27;;
47025;SDS011;32783;51.756;-2.556;2022-10-16T16:36:30;7.90;;;1.92;;
47025;SDS011;32783;51.756;-2.556;2022-10-16T16:38:56;9.43;;;1.92;;
47025;SDS011;32783;51.756;-2.556;2022-10-16T16:41:23;6.25;;;2.20;;
47025;SDS011;32783;51.756;-2.556;2022-10-16T16:43:51;8.95;;;1.58;;
47025;SDS011;32783;51.756;-2.556;2022-10-16T16:46:17;4.47;;;1.35;;